Time;durP1;ratioP1;P1;durP2;ratioP2;P2;SDS_P1;SDS_P2;PMS_P1;PMS_P2;Temp;Humidity;BMP_temperature;BMP_pressure;BME280_temperature;BME280_humidity;BME280_pressure;Samples;Min_cycle;Max_cycle;Signal;HPM_P1;HPM_P2
2022/10/13 00:00:45;;;;;;;11.48;4.30;;;;;;;8.81;68.76;100092.63;4899356;29;20043;-92
2022/10/13 00:03:12;;;;;;;12.90;4.75;;;;;;;8.56;68.95;100036.34;4898677;29;20120;-89
2022/10/13 00:05:43;;;;;;;13.45;4.85;;;;;;;9.11;68.42;100113.41;4898226;29;20100;-90
2022/10/13 00:08:11;;;;;;;10.07;4.47;;;;;;;8.96;68.88;100090.88;4880784;29;20111;-94
2022/10/13 00:10:48;;;;;;;11.43;4.57;;;;;;;9.02;68.38;100106.94;4910404;29;20510;-89
2022/10/13 00:13:19;;;;;;;8.82;4.65;;;;;;;8.86;67.75;100076.22;4883749;29;20411;-89
2022/10/13 00:15:47;;;;;;;14.55;4.78;;;;;;;8.66;68.40;100055.34;4883549;29;20036;-92
2022/10/13 00:18:14;;;;;;;9.93;5.45;;;;;;;8.68;67.73;100069.53;4898528;29;20043;-89
2022/10/13 00:20:46;;;;;;;11.65;4.60;;;;;;;8.48;67.70;100039.66;4912724;29;20074;-89
2022/10/13 00:23:15;;;;;;;16.63;5.00;;;;;;;8.79;68.41;100094.00;4898205;29;20047;-89
2022/10/13 00:25:43;;;;;;;10.63;4.40;;;;;;;8.64;68.65;100073.06;4898349;29;20466;-91
2022/10/13 00:28:09;;;;;;;17.02;5.18;;;;;;;8.68;69.08;100098.69;4898652;29;20130;-89
2022/10/13 00:30:36;;;;;;;12.40;5.50;;;;;;;8.39;68.78;100050.31;4909414;29;20044;-93
2022/10/13 00:33:02;;;;;;;;;;;;;;;8.79;69.50;100118.53;4918187;29;20082;-94
2022/10/13 00:35:29;;;;;;;13.10;6.30;;;;;;;8.23;69.64;100056.91;4892085;29;20357;-90
2022/10/13 00:37:55;;;;;;;15.20;4.95;;;;;;;8.42;70.61;100103.44;4892288;29;20046;-91
2022/10/13 00:40:21;;;;;;;13.90;5.40;;;;;;;8.24;70.52;100075.72;4901760;29;20429;-90
2022/10/13 00:42:47;;;;;;;13.98;5.65;;;;;;;8.27;70.61;100103.47;4935322;29;20051;-91
2022/10/13 00:45:29;;;;;;;16.15;5.13;;;;;;;8.39;71.06;100129.34;4932251;29;20047;-93
2022/10/13 00:48:00;;;;;;;20.63;5.35;;;;;;;8.08;70.76;100081.47;4905019;29;20048;-90
2022/10/13 00:50:32;;;;;;;12.43;5.32;;;;;;;7.87;71.07;100056.22;4899291;29;20082;-91
2022/10/13 00:53:02;;;;;;;10.27;4.90;;;;;;;8.00;71.04;100075.50;4899602;29;20092;-89
2022/10/13 00:55:33;;;;;;;16.60;5.47;;;;;;;7.87;71.17;100061.66;4898903;29;20040;-93
2022/10/13 00:58:02;;;;;;;18.23;5.90;;;;;;;7.85;71.52;100072.84;4900017;29;20052;-89
2022/10/13 01:00:32;;;;;;;16.67;5.18;;;;;;;7.84;71.70;100079.34;4897636;29;20086;-90
2022/10/13 01:02:58;;;;;;;8.55;4.82;;;;;;;8.04;71.95;100124.78;4915115;29;20126;-89
2022/10/13 01:05:24;;;;;;;12.57;4.80;;;;;;;7.88;72.05;100095.94;4899232;29;20139;-89
2022/10/13 01:07:55;;;;;;;9.50;4.22;;;;;;;7.67;72.00;100076.94;4914759;29;20043;-94
2022/10/13 01:10:58;;;;;;;18.20;5.78;;;;;;;8.19;72.13;100149.25;4895495;29;20047;-91
2022/10/13 01:13:46;;;;;;;17.30;5.75;;;;;;;8.17;71.73;100148.72;4903250;29;20100;-92
2022/10/13 01:16:38;;;;;;;11.93;5.68;;;;;;;8.12;71.72;100142.47;4903212;29;20139;-93
2022/10/13 01:19:23;;;;;;;11.85;5.15;;;;;;;8.12;71.86;100151.47;4904904;29;20052;-94
2022/10/13 01:22:07;;;;;;;16.23;5.20;;;;;;;8.04;72.42;100143.03;4903129;29;20052;-94
2022/10/13 01:24:45;;;;;;;17.73;5.72;;;;;;;7.57;72.33;100076.16;4887605;29;20059;-92
2022/10/13 01:27:36;;;;;;;12.43;5.45;;;;;;;8.03;72.48;100149.56;4904167;29;20052;-92
2022/10/13 01:30:32;;;;;;;12.70;5.15;;;;;;;7.75;72.38;100108.25;4905590;29;20073;-92
2022/10/13 01:33:29;;;;;;;14.63;5.20;;;;;;;7.55;72.53;100076.44;4902371;29;20533;-92
2022/10/13 01:36:03;;;;;;;;;;;;;;;7.99;72.76;100154.75;4887689;29;20094;-92
2022/10/13 01:38:44;;;;;;;11.98;5.15;;;;;;;7.96;72.70;100158.84;4903129;29;19965;-93
2022/10/13 01:41:29;;;;;;;12.48;5.10;;;;;;;7.90;72.93;100145.50;4874077;29;20068;-93
2022/10/13 01:44:16;;;;;;;13.25;5.45;;;;;;;7.90;72.89;100154.47;4882746;29;20104;-93
2022/10/13 01:46:51;;;;;;;16.75;5.20;;;;;;;7.53;72.84;100108.53;4867051;29;20096;-93
2022/10/13 01:49:23;;;;;;;11.25;5.15;;;;;;;7.59;72.83;100102.00;4867366;29;20040;-93
2022/10/13 01:51:49;;;;;;;17.85;5.38;;;;;;;7.57;73.09;100097.91;4882962;29;20047;-90
2022/10/13 01:54:15;;;;;;;13.95;4.78;;;;;;;7.74;73.03;100134.63;4882736;29;20055;-91
2022/10/13 01:56:50;;;;;;;9.27;4.75;;;;;;;7.65;73.33;100128.13;4880097;29;20527;-94
2022/10/13 01:59:16;;;;;;;10.45;4.88;;;;;;;7.60;73.29;100108.25;4882404;29;20183;-92
2022/10/13 02:01:57;;;;;;;10.00;4.85;;;;;;;7.90;73.04;100161.84;4882084;29;20157;-92
2022/10/13 02:04:36;;;;;;;11.85;5.07;;;;;;;7.79;73.03;100138.44;4882790;29;20043;-92
2022/10/13 02:07:18;;;;;;;10.27;5.18;;;;;;;7.48;73.00;100084.03;4882646;29;20096;-91
2022/10/13 02:10:09;;;;;;;12.65;5.05;;;;;;;7.86;72.92;100147.16;4898243;29;20045;-93
2022/10/13 02:12:50;;;;;;;13.00;5.63;;;;;;;7.80;73.37;100131.91;4882813;29;20052;-92
2022/10/13 02:15:22;;;;;;;10.10;4.50;;;;;;;7.97;73.08;100157.72;4882763;29;20081;-90
2022/10/13 02:17:50;;;;;;;11.48;5.13;;;;;;;7.68;73.05;100110.41;4871677;29;20103;-92
2022/10/13 02:20:19;;;;;;;16.00;5.38;;;;;;;7.86;72.63;100139.78;4904868;29;20047;-95
2022/10/13 02:22:47;;;;;;;9.95;5.05;;;;;;;7.75;72.84;100128.13;4904577;29;20541;-92
2022/10/13 02:25:14;;;;;;;17.02;5.68;;;;;;;7.61;72.67;100109.88;4889436;29;20036;-94
2022/10/13 02:27:40;;;;;;;17.52;5.90;;;;;;;7.91;72.69;100163.47;4920748;29;20095;-94
2022/10/13 02:30:07;;;;;;;15.85;5.68;;;;;;;7.57;72.74;100114.25;4920349;29;20066;-92
2022/10/13 02:32:33;;;;;;;17.77;5.45;;;;;;;7.66;72.79;100135.19;4920094;29;20052;-94
2022/10/13 02:34:59;;;;;;;11.68;5.15;;;;;;;7.76;73.19;100150.69;4900871;29;20139;-92
2022/10/13 02:37:25;;;;;;;12.40;4.80;;;;;;;7.67;72.75;100128.66;4917451;29;20048;-94
2022/10/13 02:39:52;;;;;;;16.48;4.88;;;;;;;7.59;72.54;100131.13;4935825;29;20190;-95
2022/10/13 02:42:19;;;;;;;15.07;5.55;;;;;;;7.56;72.78;100124.31;4888574;29;20044;-90
2022/10/13 02:44:45;;;;;;;11.10;4.95;;;;;;;7.73;72.96;100149.34;4901038;29;20032;-93
2022/10/13 02:47:12;;;;;;;15.50;5.28;;;;;;;7.76;73.08;100156.94;4905692;29;20126;-93
2022/10/13 02:49:38;;;;;;;16.55;4.50;;;;;;;7.72;72.91;100136.81;4920243;29;20106;-91
2022/10/13 02:52:04;;;;;;;13.65;5.03;;;;;;;7.65;72.82;100139.00;4904437;29;20122;-90
2022/10/13 02:54:30;;;;;;;11.75;4.68;;;;;;;7.61;72.97;100139.81;4904089;29;20042;-91
2022/10/13 02:56:56;;;;;;;12.30;4.82;;;;;;;7.47;73.08;100137.63;4887858;29;20044;-90
2022/10/13 02:59:22;;;;;;;16.77;5.18;;;;;;;7.59;73.28;100134.66;4900877;29;20063;-90
2022/10/13 03:01:48;;;;;;;11.70;5.47;;;;;;;7.70;73.06;100149.06;4916044;29;20079;-90
2022/10/13 03:04:14;;;;;;;9.50;4.97;;;;;;;7.60;72.92;100149.88;4904090;29;20139;-92
2022/10/13 03:06:40;;;;;;;12.18;5.25;;;;;;;7.70;73.55;100168.94;4888361;29;20052;-90
2022/10/13 03:09:06;;;;;;;15.27;5.13;;;;;;;7.80;73.15;100162.66;4862837;29;20060;-93
2022/10/13 03:11:33;;;;;;;15.15;5.25;;;;;;;7.81;72.63;100156.13;4893785;29;20056;-91
2022/10/13 03:13:59;;;;;;;14.35;5.15;;;;;;;7.57;73.02;100125.94;4878818;29;20060;-93
2022/10/13 03:16:25;;;;;;;15.50;5.17;;;;;;;7.59;72.84;100133.84;4851925;29;20044;-91
2022/10/13 03:18:51;;;;;;;14.98;5.15;;;;;;;7.79;73.16;100166.47;4896775;29;20045;-92
2022/10/13 03:21:17;;;;;;;17.42;5.40;;;;;;;7.79;72.86;100152.88;4892061;29;20044;-94
2022/10/13 03:23:43;;;;;;;13.50;5.13;;;;;;;7.73;72.80;100134.91;4892192;29;20044;-90
2022/10/13 03:26:09;;;;;;;13.73;5.05;;;;;;;7.75;72.58;100127.31;4870961;29;20109;-91
2022/10/13 03:28:36;;;;;;;17.50;5.45;;;;;;;7.76;72.86;100143.34;4895574;29;20044;-90
2022/10/13 03:31:07;;;;;;;13.63;5.47;;;;;;;7.80;72.70;100140.88;4864426;29;20053;-89
2022/10/13 03:33:33;;;;;;;15.85;6.00;;;;;;;7.76;72.78;100137.09;4879902;29;20176;-90
2022/10/13 03:36:02;;;;;;;17.30;5.85;;;;;;;8.04;72.82;100186.59;4896595;29;20056;-90
2022/10/13 03:38:29;;;;;;;12.45;5.90;;;;;;;7.72;73.21;100145.00;4881963;29;20135;-95
2022/10/13 03:40:56;;;;;;;;;;;;;;;7.92;73.88;100184.97;4880966;29;20056;-92
2022/10/13 03:43:22;;;;;;;22.13;5.88;;;;;;;7.60;73.64;100146.34;4885369;29;19922;-90
2022/10/13 03:45:56;;;;;;;26.60;6.80;;;;;;;7.70;73.83;100158.03;4918675;29;20043;-92
2022/10/13 03:48:22;;;;;;;17.92;6.25;;;;;;;8.03;73.70;100198.59;4919276;29;20040;-91
2022/10/13 03:50:48;;;;;;;22.87;6.90;;;;;;;7.73;73.80;100162.94;4919173;29;20039;-92
2022/10/13 03:53:14;;;;;;;17.10;6.72;;;;;;;7.72;73.58;100153.16;4894473;29;20123;-96
2022/10/13 03:55:41;;;;;;;15.52;5.82;;;;;;;7.61;73.85;100129.75;4889977;29;20040;-91
2022/10/13 03:58:07;;;;;;;15.35;6.55;;;;;;;7.73;73.71;100138.44;4934708;29;20039;-90
2022/10/13 04:00:36;;;;;;;13.20;6.65;;;;;;;7.96;73.63;100161.56;4919067;29;20099;-90
2022/10/13 04:03:02;;;;;;;17.33;6.13;;;;;;;7.72;73.06;100139.53;4887979;29;20059;-93
2022/10/13 04:05:29;;;;;;;23.73;7.93;;;;;;;7.72;73.55;100147.72;4890510;29;20046;-93
2022/10/13 04:07:55;;;;;;;20.05;7.25;;;;;;;7.81;73.67;100158.84;4888581;29;20051;-94
2022/10/13 04:10:26;;;;;;;25.27;8.07;;;;;;;7.53;73.76;100116.69;4889771;29;20491;-89
2022/10/13 04:12:52;;;;;;;20.00;7.38;;;;;;;7.75;73.89;100162.69;4918532;29;20509;-88
2022/10/13 04:15:18;;;;;;;16.42;7.15;;;;;;;7.84;73.70;100169.19;4903451;29;20501;-90
2022/10/13 04:17:44;;;;;;;15.02;6.97;;;;;;;7.67;73.61;100164.03;4902582;29;20050;-90
2022/10/13 04:20:11;;;;;;;17.73;7.93;;;;;;;7.45;73.88;100133.56;4902209;29;20043;-89
2022/10/13 04:22:37;;;;;;;21.27;7.35;;;;;;;8.00;74.02;100221.72;4901850;29;20090;-91
2022/10/13 04:25:04;;;;;;;20.13;7.53;;;;;;;7.95;73.85;100211.66;4907168;29;20063;-89
2022/10/13 04:27:31;;;;;;;18.55;8.43;;;;;;;7.74;74.01;100180.91;4887502;29;20497;-91
2022/10/13 04:29:57;;;;;;;15.75;7.80;;;;;;;7.85;74.27;100197.25;4903005;29;20139;-93
2022/10/13 04:32:23;;;;;;;21.77;8.27;;;;;;;7.63;73.93;100168.38;4902540;29;20055;-92
2022/10/13 04:34:52;;;;;;;24.45;9.23;;;;;;;7.77;74.45;100185.78;4902981;29;20321;-92
2022/10/13 04:37:19;;;;;;;27.65;8.15;;;;;;;7.89;73.79;100199.13;4904825;29;20035;-91
2022/10/13 04:39:44;;;;;;;20.05;7.28;;;;;;;8.15;73.64;100212.75;4887642;29;20557;-90
2022/10/13 04:42:11;;;;;;;23.63;7.65;;;;;;;8.29;73.42;100234.78;4888507;29;20047;-91
2022/10/13 04:44:37;;;;;;;15.52;7.35;;;;;;;8.16;73.07;100198.81;4918396;29;20063;-90
2022/10/13 04:47:05;;;;;;;21.33;8.43;;;;;;;8.37;72.92;100243.19;4923143;29;20433;-87
2022/10/13 04:49:34;;;;;;;17.52;8.32;;;;;;;8.33;72.60;100217.59;4909065;29;20510;-92
2022/10/13 04:52:00;;;;;;;18.23;7.07;;;;;;;8.23;72.06;100193.09;4906069;29;20076;-89
2022/10/13 04:54:26;;;;;;;20.10;7.93;;;;;;;8.38;72.51;100222.25;4905793;29;20054;-90
2022/10/13 04:56:52;;;;;;;16.65;7.95;;;;;;;8.45;72.45;100222.78;4920856;29;20070;-91
2022/10/13 04:59:18;;;;;;;24.07;9.77;;;;;;;8.53;72.05;100240.47;4906491;29;20531;-90
2022/10/13 05:01:44;;;;;;;19.45;9.15;;;;;;;8.45;72.10;100229.03;4906324;29;20044;-90
2022/10/13 05:04:12;;;;;;;21.00;8.32;;;;;;;8.44;72.04;100237.47;4901022;29;20044;-90
2022/10/13 05:06:40;;;;;;;19.65;8.40;;;;;;;8.37;72.12;100229.56;4906183;29;20509;-91
2022/10/13 05:09:06;;;;;;;43.08;18.15;;;;;;;8.39;72.01;100235.59;4892933;29;20505;-90
2022/10/13 05:11:32;;;;;;;21.05;8.63;;;;;;;8.40;71.42;100239.94;4906168;29;20075;-90
2022/10/13 05:14:00;;;;;;;30.60;11.43;;;;;;;8.56;71.59;100256.28;4894890;29;20043;-91
2022/10/13 05:16:26;;;;;;;;;;;;;;;8.65;72.34;100269.06;4922234;29;20087;-91
2022/10/13 05:18:53;;;;;;;27.10;10.30;;;;;;;8.57;71.68;100239.63;4917981;29;20461;-90
2022/10/13 05:21:25;;;;;;;26.60;10.10;;;;;;;8.71;71.46;100258.97;4911334;29;20035;-90
2022/10/13 05:23:54;;;;;;;17.92;7.57;;;;;;;8.59;71.42;100259.25;4889986;29;20470;-90
2022/10/13 05:26:22;;;;;;;21.60;9.18;;;;;;;8.48;71.61;100233.13;4905971;29;20115;-89
2022/10/13 05:28:48;;;;;;;23.65;9.75;;;;;;;8.68;71.35;100243.16;4888577;29;20039;-89
2022/10/13 05:31:21;;;;;;;29.13;11.70;;;;;;;8.87;71.18;100257.81;4931088;29;20046;-88
2022/10/13 05:33:48;;;;;;;19.63;7.82;;;;;;;8.47;70.80;100217.84;4907968;29;20054;-89
2022/10/13 05:36:25;;;;;;;27.98;12.38;;;;;;;8.53;71.13;100227.66;4910483;29;20572;-87
2022/10/13 05:38:57;;;;;;;24.05;9.93;;;;;;;8.61;70.95;100239.88;4906318;29;20040;-90
2022/10/13 05:41:24;;;;;;;23.90;8.60;;;;;;;8.52;70.69;100233.41;4888860;29;20082;-90
2022/10/13 05:43:57;;;;;;;19.88;8.20;;;;;;;8.83;70.50;100267.63;4902385;29;20047;-90
2022/10/13 05:46:24;;;;;;;56.30;10.50;;;;;;;8.72;70.30;100255.13;4909663;29;20130;-90
2022/10/13 05:48:52;;;;;;;34.25;8.82;;;;;;;8.87;70.32;100263.28;4912722;29;20142;-89
2022/10/13 05:51:29;;;;;;;41.72;9.68;;;;;;;9.00;69.52;100267.28;4917355;29;20147;-90
2022/10/13 05:54:08;;;;;;;33.00;9.00;;;;;;;8.88;69.60;100261.34;4888887;29;20532;-91
2022/10/13 05:56:40;;;;;;;29.27;8.93;;;;;;;8.76;69.01;100244.50;4938285;29;20048;-89
2022/10/13 05:59:11;;;;;;;26.80;9.05;;;;;;;8.70;70.12;100224.59;4918708;29;20069;-90
2022/10/13 06:01:39;;;;;;;49.97;10.90;;;;;;;8.91;69.48;100247.97;4926604;29;20048;-90
2022/10/13 06:04:11;;;;;;;32.28;9.05;;;;;;;8.93;69.24;100251.22;4907448;29;20036;-90
2022/10/13 06:06:39;;;;;;;64.15;11.48;;;;;;;8.97;68.76;100250.66;4902192;29;20047;-90
2022/10/13 06:09:05;;;;;;;39.20;13.63;;;;;;;9.04;68.35;100249.28;4866544;29;20057;-92
2022/10/13 06:11:31;;;;;;;31.77;11.23;;;;;;;9.08;68.35;100276.81;4889685;29;20060;-91
2022/10/13 06:13:57;;;;;;;26.25;9.50;;;;;;;9.04;68.09;100279.28;4876255;29;20072;-91
2022/10/13 06:16:23;;;;;;;67.78;11.38;;;;;;;8.97;68.83;100273.28;4849094;29;20044;-88
2022/10/13 06:18:49;;;;;;;26.75;10.48;;;;;;;8.90;68.81;100276.31;4872614;29;20050;-92
2022/10/13 06:21:16;;;;;;;22.85;9.38;;;;;;;8.98;69.30;100290.50;4873383;29;20477;-89
2022/10/13 06:23:42;;;;;;;31.73;11.60;;;;;;;8.92;69.08;100271.41;4865130;29;20527;-88
2022/10/13 06:26:08;;;;;;;26.27;9.63;;;;;;;8.66;69.13;100240.69;4861087;29;20103;-89
2022/10/13 06:28:36;;;;;;;32.25;13.38;;;;;;;8.90;69.43;100259.97;4869084;29;20132;-91
2022/10/13 06:31:06;;;;;;;35.03;14.30;;;;;;;8.86;69.15;100239.00;4850107;29;20057;-88
2022/10/13 06:33:33;;;;;;;24.20;12.57;;;;;;;9.21;69.08;100275.41;4860100;29;20044;-91
2022/10/13 06:36:04;;;;;;;19.08;11.20;;;;;;;8.97;68.59;100247.94;4862241;29;20162;-91
2022/10/13 06:38:31;;;;;;;22.15;10.05;;;;;;;8.90;68.84;100248.25;4861068;29;20059;-92
2022/10/13 06:41:01;;;;;;;26.05;10.73;;;;;;;9.21;68.69;100286.31;4861327;29;20475;-91
2022/10/13 06:43:30;;;;;;;23.88;9.63;;;;;;;9.11;68.55;100257.16;4859253;29;20053;-91
2022/10/13 06:46:00;;;;;;;22.00;9.88;;;;;;;9.29;68.21;100275.63;4853818;29;20048;-89
2022/10/13 06:48:27;;;;;;;23.73;9.77;;;;;;;9.13;67.87;100244.84;4894493;29;20053;-92
2022/10/13 06:50:53;;;;;;;21.02;10.18;;;;;;;9.41;67.47;100289.75;4891773;29;20064;-90
2022/10/13 06:53:21;;;;;;;22.30;9.95;;;;;;;9.08;67.90;100228.53;4904609;29;20144;-89
2022/10/13 06:55:47;;;;;;;27.58;10.68;;;;;;;9.63;67.40;100286.63;4879826;29;20047;-89
2022/10/13 06:58:13;;;;;;;30.92;9.82;;;;;;;9.87;66.59;100269.53;4917353;29;20111;-91
2022/10/13 07:00:41;;;;;;;25.60;9.88;;;;;;;9.75;65.62;100263.59;4900005;29;20070;-90
2022/10/13 07:03:07;;;;;;;29.67;10.50;;;;;;;9.92;65.67;100283.13;4903870;29;20478;-90
2022/10/13 07:05:33;;;;;;;20.17;9.30;;;;;;;10.09;65.96;100297.19;4898260;29;20414;-91
2022/10/13 07:07:59;;;;;;;34.55;9.80;;;;;;;9.85;65.37;100291.66;4906844;29;20128;-92
2022/10/13 07:10:26;;;;;;;21.90;9.63;;;;;;;9.83;65.80;100288.41;4889745;29;20048;-91
2022/10/13 07:12:52;;;;;;;15.00;9.32;;;;;;;9.76;65.75;100276.16;4885357;29;20131;-91
2022/10/13 07:15:19;;;;;;;26.13;10.23;;;;;;;9.80;65.27;100282.66;4882942;29;20119;-91
2022/10/13 07:17:50;;;;;;;24.80;9.60;;;;;;;9.94;65.56;100293.78;4909928;29;20040;-90
2022/10/13 07:20:18;;;;;;;23.25;10.80;;;;;;;9.83;65.74;100279.38;4916288;29;20047;-92
2022/10/13 07:22:44;;;;;;;21.02;10.73;;;;;;;9.87;66.40;100266.81;4901022;29;20044;-91
2022/10/13 07:25:10;;;;;;;24.97;11.03;;;;;;;10.03;65.89;100284.72;4887445;29;20036;-90
2022/10/13 07:27:39;;;;;;;21.85;10.82;;;;;;;10.06;65.57;100295.03;4910431;29;20040;-92
2022/10/13 07:30:06;;;;;;;22.65;9.90;;;;;;;9.83;65.55;100284.84;4915432;29;20043;-91
2022/10/13 07:32:32;;;;;;;25.48;10.18;;;;;;;9.89;65.35;100292.72;4924040;29;20055;-89
2022/10/13 07:35:02;;;;;;;27.70;10.30;;;;;;;9.96;65.38;100297.03;4902636;29;20043;-91
2022/10/13 07:37:29;;;;;;;21.75;10.80;;;;;;;10.02;64.96;100302.19;4888880;29;20115;-90
2022/10/13 07:39:59;;;;;;;31.08;10.50;;;;;;;10.02;64.59;100309.56;4918526;29;20052;-91
2022/10/13 07:42:30;;;;;;;26.95;11.98;;;;;;;9.77;64.92;100286.00;4898573;29;20037;-92
2022/10/13 07:44:56;;;;;;;32.03;12.43;;;;;;;9.75;65.34;100277.25;4890959;29;20179;-89
2022/10/13 07:47:25;;;;;;;47.13;16.55;;;;;;;10.10;65.27;100312.50;4897682;29;20052;-90
2022/10/13 07:49:53;;;;;;;36.03;11.35;;;;;;;10.16;64.36;100316.00;4899519;29;20044;-89
2022/10/13 07:52:19;;;;;;;26.88;11.57;;;;;;;10.22;64.40;100300.38;4897177;29;20506;-90
2022/10/13 07:54:46;;;;;;;32.92;12.00;;;;;;;10.18;64.03;100277.47;4928294;29;20048;-90
2022/10/13 07:57:12;;;;;;;23.73;9.90;;;;;;;10.24;63.42;100290.00;4897223;29;20543;-91
2022/10/13 07:59:38;;;;;;;31.17;10.00;;;;;;;10.05;63.28;100277.03;4881741;29;20044;-91
2022/10/13 08:02:09;;;;;;;24.90;10.43;;;;;;;10.07;62.76;100263.91;4893138;29;20139;-90
2022/10/13 08:04:35;;;;;;;25.80;9.50;;;;;;;10.30;62.87;100272.50;4912120;29;20049;-90
2022/10/13 08:07:02;;;;;;;21.52;10.38;;;;;;;10.60;62.64;100306.09;4909412;29;20070;-90
2022/10/13 08:09:28;;;;;;;30.00;11.32;;;;;;;10.65;66.38;100286.88;4915521;29;20047;-92
2022/10/13 08:11:56;;;;;;;23.55;10.00;;;;;;;10.65;61.10;100287.69;4908459;29;20051;-91
2022/10/13 08:14:22;;;;;;;30.88;11.85;;;;;;;10.80;62.33;100297.69;4896848;29;20092;-92
2022/10/13 08:16:49;;;;;;;23.27;10.27;;;;;;;10.88;61.55;100298.94;4921797;29;20048;-90
2022/10/13 08:19:16;;;;;;;25.60;9.82;;;;;;;10.74;61.00;100280.50;4911043;29;20557;-91
2022/10/13 08:21:45;;;;;;;22.42;9.57;;;;;;;10.61;60.92;100280.38;4889154;29;20533;-89
2022/10/13 08:24:16;;;;;;;27.10;9.50;;;;;;;10.53;61.12;100279.09;4888804;29;20066;-91
2022/10/13 08:26:46;;;;;;;36.35;10.02;;;;;;;10.81;60.77;100316.53;4913413;29;20096;-89
2022/10/13 08:29:13;;;;;;;17.00;7.80;;;;;;;10.86;60.14;100315.66;4896488;29;20134;-90
2022/10/13 08:31:40;;;;;;;25.88;9.30;;;;;;;10.78;60.12;100328.03;4904004;29;20048;-91
2022/10/13 08:34:06;;;;;;;45.78;11.90;;;;;;;10.78;59.29;100311.63;4904551;29;20051;-91
2022/10/13 08:36:42;;;;;;;26.73;7.78;;;;;;;10.47;58.52;100266.59;4901268;29;20229;-92
2022/10/13 08:39:09;;;;;;;18.80;8.17;;;;;;;10.87;59.99;100322.75;4880744;29;20139;-91
2022/10/13 08:41:42;;;;;;;20.95;7.90;;;;;;;10.78;59.87;100319.03;4906354;29;20044;-92
2022/10/13 08:44:29;;;;;;;25.48;7.60;;;;;;;10.41;59.56;100282.22;4890431;29;20139;-91
2022/10/13 08:47:13;;;;;;;24.60;7.95;;;;;;;10.66;59.86;100321.31;4881443;29;20131;-91
2022/10/13 08:49:42;;;;;;;21.13;7.53;;;;;;;10.36;60.70;100287.72;4912206;29;20044;-92
2022/10/13 08:52:26;;;;;;;17.25;9.13;;;;;;;10.40;60.67;100318.84;4892884;29;20136;-94
2022/10/13 08:54:54;;;;;;;29.20;9.13;;;;;;;10.23;62.02;100332.91;4916963;29;20050;-92
2022/10/13 08:57:25;;;;;;;14.45;8.15;;;;;;;9.71;62.44;100254.38;4889523;29;20047;-92
2022/10/13 08:59:52;;;;;;;23.27;9.02;;;;;;;9.94;62.09;100289.16;4892556;29;20141;-91
2022/10/13 09:02:30;;;;;;;22.77;8.90;;;;;;;10.20;62.52;100286.19;4900995;29;20498;-91
2022/10/13 09:05:02;;;;;;;23.63;9.60;;;;;;;10.36;61.67;100293.19;4906925;29;20052;-93
2022/10/13 09:07:37;;;;;;;19.30;9.55;;;;;;;10.90;61.70;100330.38;4900228;29;20050;-93
2022/10/13 09:10:03;;;;;;;33.72;9.95;;;;;;;10.70;61.52;100278.66;4916457;29;20051;-92
2022/10/13 09:12:42;;;;;;;20.30;10.52;;;;;;;10.49;61.33;100242.47;4899469;29;20091;-93
2022/10/13 09:15:11;;;;;;;20.55;10.05;;;;;;;10.61;61.15;100274.91;4898283;29;20044;-92
2022/10/13 09:17:40;;;;;;;21.48;10.43;;;;;;;10.67;60.89;100292.91;4899311;29;20095;-91
2022/10/13 09:20:17;;;;;;;21.98;9.98;;;;;;;10.72;61.46;100307.31;4883819;29;20055;-92
2022/10/13 09:22:43;;;;;;;;;;;;;;;10.52;61.56;100321.19;4915703;29;20044;-90
2022/10/13 09:25:17;;;;;;;11.48;7.50;;;;;;;10.12;61.57;100299.38;4899149;29;19955;-91
2022/10/13 09:27:58;;;;;;;20.95;10.32;;;;;;;10.08;61.98;100286.56;4899963;29;20047;-92
2022/10/13 09:30:39;;;;;;;18.13;8.23;;;;;;;9.92;62.36;100266.75;4914373;29;20051;-93
2022/10/13 09:33:11;;;;;;;17.52;7.32;;;;;;;9.99;62.47;100332.78;4904569;29;20195;-94
2022/10/13 09:36:05;;;;;;;19.30;8.50;;;;;;;9.93;63.07;100324.91;4903103;29;20048;-91
2022/10/13 09:38:32;;;;;;;17.40;8.32;;;;;;;9.62;63.90;100289.63;4901697;29;20055;-90
2022/10/13 09:41:11;;;;;;;13.77;8.20;;;;;;;9.50;63.93;100278.22;4885791;29;20095;-89
2022/10/13 09:43:58;;;;;;;20.98;8.25;;;;;;;9.49;64.03;100268.41;4883315;29;20045;-92
2022/10/13 09:46:37;;;;;;;13.18;7.35;;;;;;;9.56;64.32;100304.41;4899434;29;20163;-92
2022/10/13 09:49:38;;;;;;;19.20;7.22;;;;;;;9.72;64.03;100316.06;4852992;29;20044;-93
2022/10/13 09:52:16;;;;;;;14.45;7.30;;;;;;;9.70;64.31;100312.78;4865949;29;20056;-92
2022/10/13 09:54:50;;;;;;;13.38;7.18;;;;;;;9.81;63.98;100325.28;4852538;29;20230;-93
2022/10/13 09:57:20;;;;;;;13.95;7.70;;;;;;;9.66;63.88;100296.16;4883782;29;20450;-92
2022/10/13 09:59:52;;;;;;;15.55;7.93;;;;;;;9.99;63.74;100323.78;4868792;29;20100;-92
2022/10/13 10:02:39;;;;;;;27.10;8.52;;;;;;;9.79;62.97;100305.63;4861576;29;20578;-93
2022/10/13 10:05:26;;;;;;;24.10;7.65;;;;;;;10.10;63.33;100326.19;4898947;29;20044;-93
2022/10/13 10:08:13;;;;;;;15.35;6.68;;;;;;;10.28;63.32;100323.88;4873229;29;20056;-93
2022/10/13 10:10:41;;;;;;;15.50;7.32;;;;;;;10.01;62.79;100302.47;4872008;29;20044;-92
2022/10/13 10:13:12;;;;;;;16.65;6.90;;;;;;;9.94;62.71;100286.41;4871113;29;20040;-93
2022/10/13 10:16:16;;;;;;;15.63;6.40;;;;;;;10.29;62.60;100328.22;4901396;29;20124;-92
2022/10/13 10:18:51;;;;;;;18.50;6.85;;;;;;;10.31;61.78;100324.13;4901275;29;20475;-92
2022/10/13 10:21:47;;;;;;;15.60;6.82;;;;;;;10.23;62.22;100321.97;4888990;29;20422;-91
2022/10/13 10:24:48;;;;;;;16.58;6.75;;;;;;;10.36;62.41;100328.72;4904384;29;20044;-90
2022/10/13 10:27:23;;;;;;;13.90;6.72;;;;;;;10.17;61.83;100303.19;4905682;29;20050;-93
2022/10/13 10:29:59;;;;;;;19.80;9.25;;;;;;;10.18;62.08;100324.75;4905293;29;20043;-91
2022/10/13 10:32:53;;;;;;;18.88;6.63;;;;;;;10.21;62.07;100335.09;4904699;29;20079;-90
2022/10/13 10:35:44;;;;;;;21.05;7.32;;;;;;;10.18;61.94;100302.06;4904375;29;20043;-94
2022/10/13 10:38:13;;;;;;;17.90;7.40;;;;;;;10.31;62.42;100326.84;4921933;29;20040;-93
2022/10/13 10:41:06;;;;;;;13.10;6.90;;;;;;;10.09;62.15;100293.66;4906089;29;20572;-92
2022/10/13 10:43:55;;;;;;;14.02;6.55;;;;;;;10.30;62.26;100327.16;4905710;29;20052;-93
2022/10/13 10:46:33;;;;;;;21.05;7.55;;;;;;;10.12;62.34;100315.75;4890337;29;20486;-93
2022/10/13 10:49:03;;;;;;;18.58;7.78;;;;;;;10.14;62.75;100314.69;4905383;29;20044;-92
2022/10/13 10:51:35;;;;;;;12.32;6.65;;;;;;;10.10;62.38;100328.09;4905079;29;20058;-92
2022/10/13 10:54:26;;;;;;;23.30;7.25;;;;;;;9.91;62.62;100302.56;4896415;29;20044;-90
2022/10/13 10:57:11;;;;;;;20.70;8.10;;;;;;;10.04;62.21;100312.84;4881342;29;20055;-90
2022/10/13 11:00:00;;;;;;;34.15;14.32;;;;;;;10.32;62.94;100330.38;4881467;29;20442;-90
2022/10/13 11:02:55;;;;;;;19.85;9.07;;;;;;;10.48;62.07;100318.22;4865883;29;20079;-91
2022/10/13 11:05:21;;;;;;;19.08;8.82;;;;;;;10.54;61.49;100300.66;4884290;29;20143;-90
2022/10/13 11:07:50;;;;;;;16.95;8.55;;;;;;;10.66;61.80;100321.31;4900801;29;20476;-91
2022/10/13 11:10:21;;;;;;;16.40;8.20;;;;;;;10.64;61.52;100305.22;4909031;29;20068;-89
2022/10/13 11:12:51;;;;;;;22.67;9.60;;;;;;;10.78;61.13;100305.34;4912267;29;20435;-91
2022/10/13 11:15:39;;;;;;;22.33;8.23;;;;;;;11.02;60.29;100314.38;4864061;29;20041;-91
2022/10/13 11:18:55;;;;;;;15.23;8.88;;;;;;;10.99;60.16;100314.97;4912202;29;20048;-93
2022/10/13 11:21:55;;;;;;;15.82;7.95;;;;;;;10.77;60.36;100315.47;4881218;29;20053;-91
2022/10/13 11:24:50;;;;;;;13.88;7.30;;;;;;;10.70;60.78;100322.41;4880362;29;20056;-92
2022/10/13 11:27:36;;;;;;;13.15;7.30;;;;;;;10.43;60.60;100290.94;4880860;29;20040;-93
2022/10/13 11:30:26;;;;;;;26.25;8.65;;;;;;;10.60;60.68;100315.13;4918235;29;20656;-92
2022/10/13 11:32:55;;;;;;;29.88;9.00;;;;;;;10.68;61.36;100327.34;4905613;29;20051;-92
2022/10/13 11:35:24;;;;;;;30.92;14.23;;;;;;;10.58;60.30;100307.19;4926565;29;20650;-93
2022/10/13 11:37:57;;;;;;;44.95;16.85;;;;;;;10.78;60.56;100316.28;4902290;29;20040;-89
2022/10/13 11:40:37;;;;;;;46.05;11.13;;;;;;;10.93;59.97;100283.31;4899150;29;20518;-90
2022/10/13 11:43:18;;;;;;;24.63;7.90;;;;;;;11.32;58.28;100309.63;4899295;29;20155;-89